sensor_id;sensor_type;location;lat;lon;timestamp;temperature;humidity
61807;DHT22;47726;52.766;6.606;2023-02-18T00:00:17;8.10;99.90
61807;DHT22;47726;52.766;6.606;2023-02-18T00:02:44;8.10;99.90
61807;DHT22;47726;52.766;6.606;2023-02-18T00:05:10;8.10;99.90
61807;DHT22;47726;52.766;6.606;2023-02-18T00:07:38;8.20;99.90
61807;DHT22;47726;52.766;6.606;2023-02-18T00:10:05;8.10;99.90
61807;DHT22;47726;52.766;6.606;2023-02-18T00:12:31;8.10;99.90
61807;DHT22;47726;52.766;6.606;2023-02-18T00:14:57;8.10;99.90
61807;DHT22;47726;52.766;6.606;2023-02-18T00:17:23;8.10;99.90
61807;DHT22;47726;52.766;6.606;2023-02-18T00:19:48;8.20;99.90
61807;DHT22;47726;52.766;6.606;2023-02-18T00:22:14;8.10;99.90
61807;DHT22;47726;52.766;6.606;2023-02-18T00:24:39;8.20;99.90
61807;DHT22;47726;52.766;6.606;2023-02-18T00:27:05;8.20;99.90
61807;DHT22;47726;52.766;6.606;2023-02-18T00:29:31;8.20;99.90
61807;DHT22;47726;52.766;6.606;2023-02-18T00:31:57;8.20;99.90
61807;DHT22;47726;52.766;6.606;2023-02-18T00:34:22;8.20;99.90
61807;DHT22;47726;52.766;6.606;2023-02-18T00:36:48;8.20;99.90
61807;DHT22;47726;52.766;6.606;2023-02-18T00:39:13;8.20;99.90
61807;DHT22;47726;52.766;6.606;2023-02-18T00:41:39;8.20;99.90
61807;DHT22;47726;52.766;6.606;2023-02-18T00:44:06;8.20;99.90
61807;DHT22;47726;52.766;6.606;2023-02-18T00:46:31;8.20;99.90
61807;DHT22;47726;52.766;6.606;2023-02-18T00:48:57;8.20;99.90
61807;DHT22;47726;52.766;6.606;2023-02-18T00:51:23;8.20;99.90
61807;DHT22;47726;52.766;6.606;2023-02-18T00:53:50;8.20;99.90
61807;DHT22;47726;52.766;6.606;2023-02-18T00:56:15;8.30;99.90
61807;DHT22;47726;52.766;6.606;2023-02-18T00:58:41;8.20;99.90
61807;DHT22;47726;52.766;6.606;2023-02-18T01:01:08;8.20;99.90
61807;DHT22;47726;52.766;6.606;2023-02-18T01:03:35;8.30;99.90
61807;DHT22;47726;52.766;6.606;2023-02-18T01:06:01;8.30;99.90
61807;DHT22;47726;52.766;6.606;2023-02-18T01:08:26;8.30;99.90
61807;DHT22;47726;52.766;6.606;2023-02-18T01:10:54;8.30;99.90
61807;DHT22;47726;52.766;6.606;2023-02-18T01:13:20;8.30;99.90
61807;DHT22;47726;52.766;6.606;2023-02-18T01:15:46;8.30;99.90
61807;DHT22;47726;52.766;6.606;2023-02-18T01:18:12;8.30;99.90
61807;DHT22;47726;52.766;6.606;2023-02-18T01:20:39;8.40;99.90
61807;DHT22;47726;52.766;6.606;2023-02-18T01:23:06;8.30;99.90
61807;DHT22;47726;52.766;6.606;2023-02-18T01:25:32;8.40;99.90
61807;DHT22;47726;52.766;6.606;2023-02-18T01:27:58;8.40;99.90
61807;DHT22;47726;52.766;6.606;2023-02-18T01:30:24;8.40;99.90
61807;DHT22;47726;52.766;6.606;2023-02-18T01:32:50;8.40;99.90
61807;DHT22;47726;52.766;6.606;2023-02-18T01:35:17;8.40;99.90
61807;DHT22;47726;52.766;6.606;2023-02-18T01:37:44;8.40;99.90
61807;DHT22;47726;52.766;6.606;2023-02-18T01:40:12;8.40;99.90
61807;DHT22;47726;52.766;6.606;2023-02-18T01:42:38;8.40;99.90
61807;DHT22;47726;52.766;6.606;2023-02-18T01:48:02;8.40;99.90
61807;DHT22;47726;52.766;6.606;2023-02-18T01:50:28;8.40;99.90
61807;DHT22;47726;52.766;6.606;2023-02-18T01:52:54;8.40;99.90
61807;DHT22;47726;52.766;6.606;2023-02-18T01:55:20;8.50;99.90
61807;DHT22;47726;52.766;6.606;2023-02-18T01:57:46;8.50;99.90
61807;DHT22;47726;52.766;6.606;2023-02-18T02:00:17;8.50;99.90
61807;DHT22;47726;52.766;6.606;2023-02-18T02:02:47;8.50;99.90
61807;DHT22;47726;52.766;6.606;2023-02-18T02:05:13;8.50;99.90
61807;DHT22;47726;52.766;6.606;2023-02-18T02:07:44;8.50;99.90
61807;DHT22;47726;52.766;6.606;2023-02-18T02:10:11;8.50;99.90
61807;DHT22;47726;52.766;6.606;2023-02-18T02:16:08;8.50;99.90
61807;DHT22;47726;52.766;6.606;2023-02-18T02:18:59;8.50;99.90
61807;DHT22;47726;52.766;6.606;2023-02-18T02:21:58;8.60;99.90
61807;DHT22;47726;52.766;6.606;2023-02-18T02:33:18;8.60;99.90
61807;DHT22;47726;52.766;6.606;2023-02-18T02:38:33;8.60;99.90
61807;DHT22;47726;52.766;6.606;2023-02-18T02:41:09;8.60;99.90
61807;DHT22;47726;52.766;6.606;2023-02-18T02:43:54;8.60;99.90
61807;DHT22;47726;52.766;6.606;2023-02-18T02:46:40;8.60;99.90
61807;DHT22;47726;52.766;6.606;2023-02-18T02:49:25;8.70;99.90
61807;DHT22;47726;52.766;6.606;2023-02-18T02:52:19;8.70;99.90
61807;DHT22;47726;52.766;6.606;2023-02-18T02:54:46;8.70;99.90
61807;DHT22;47726;52.766;6.606;2023-02-18T02:59:49;8.70;99.90
61807;DHT22;47726;52.766;6.606;2023-02-18T03:05:23;8.70;99.90
61807;DHT22;47726;52.766;6.606;2023-02-18T03:08:25;8.70;99.90
61807;DHT22;47726;52.766;6.606;2023-02-18T03:11:08;8.80;99.90
61807;DHT22;47726;52.766;6.606;2023-02-18T03:16:26;8.80;99.90
61807;DHT22;47726;52.766;6.606;2023-02-18T03:19:02;8.80;99.90
61807;DHT22;47726;52.766;6.606;2023-02-18T03:21:35;8.80;99.90
61807;DHT22;47726;52.766;6.606;2023-02-18T03:24:14;8.90;99.90
61807;DHT22;47726;52.766;6.606;2023-02-18T03:26:44;8.90;99.90
61807;DHT22;47726;52.766;6.606;2023-02-18T03:29:13;8.90;99.90
61807;DHT22;47726;52.766;6.606;2023-02-18T03:31:42;8.90;99.90
61807;DHT22;47726;52.766;6.606;2023-02-18T03:34:13;8.90;99.90
61807;DHT22;47726;52.766;6.606;2023-02-18T03:36:40;8.90;99.90
61807;DHT22;47726;52.766;6.606;2023-02-18T03:39:13;8.90;99.90
61807;DHT22;47726;52.766;6.606;2023-02-18T03:41:39;8.90;99.90
61807;DHT22;47726;52.766;6.606;2023-02-18T03:44:07;8.90;99.90
61807;DHT22;47726;52.766;6.606;2023-02-18T03:46:33;8.90;99.90
61807;DHT22;47726;52.766;6.606;2023-02-18T03:49:00;9.00;99.90
61807;DHT22;47726;52.766;6.606;2023-02-18T03:51:26;9.00;99.90
61807;DHT22;47726;52.766;6.606;2023-02-18T03:53:51;9.00;99.90
61807;DHT22;47726;52.766;6.606;2023-02-18T03:56:18;9.00;99.90
61807;DHT22;47726;52.766;6.606;2023-02-18T03:58:44;9.00;99.90
61807;DHT22;47726;52.766;6.606;2023-02-18T04:01:09;9.00;99.90
61807;DHT22;47726;52.766;6.606;2023-02-18T04:03:35;9.00;99.90
61807;DHT22;47726;52.766;6.606;2023-02-18T04:06:00;9.00;99.90
61807;DHT22;47726;52.766;6.606;2023-02-18T04:08:26;9.10;99.90
61807;DHT22;47726;52.766;6.606;2023-02-18T04:10:52;9.10;99.90
61807;DHT22;47726;52.766;6.606;2023-02-18T04:13:17;9.10;99.90
61807;DHT22;47726;52.766;6.606;2023-02-18T04:15:43;9.10;99.90
61807;DHT22;47726;52.766;6.606;2023-02-18T04:18:09;9.10;99.90
61807;DHT22;47726;52.766;6.606;2023-02-18T04:20:35;9.10;99.90
61807;DHT22;47726;52.766;6.606;2023-02-18T04:23:02;9.10;99.90
61807;DHT22;47726;52.766;6.606;2023-02-18T04:25:28;9.20;99.90
61807;DHT22;47726;52.766;6.606;2023-02-18T04:27:54;9.10;99.90
61807;DHT22;47726;52.766;6.606;2023-02-18T04:30:19;9.20;99.90
61807;DHT22;47726;52.766;6.606;2023-02-18T04:32:46;9.20;99.90
61807;DHT22;47726;52.766;6.606;2023-02-18T04:35:12;9.20;99.90
61807;DHT22;47726;52.766;6.606;2023-02-18T04:37:38;9.20;99.90
61807;DHT22;47726;52.766;6.606;2023-02-18T04:40:04;9.20;99.90
61807;DHT22;47726;52.766;6.606;2023-02-18T04:42:30;9.20;99.90
61807;DHT22;47726;52.766;6.606;2023-02-18T04:44:55;9.20;99.90
61807;DHT22;47726;52.766;6.606;2023-02-18T04:47:21;9.20;99.90
61807;DHT22;47726;52.766;6.606;2023-02-18T04:49:47;9.20;99.90
61807;DHT22;47726;52.766;6.606;2023-02-18T04:52:12;9.20;99.90
61807;DHT22;47726;52.766;6.606;2023-02-18T04:54:38;9.20;99.90
61807;DHT22;47726;52.766;6.606;2023-02-18T04:57:04;9.20;99.90
61807;DHT22;47726;52.766;6.606;2023-02-18T04:59:29;9.20;99.90
61807;DHT22;47726;52.766;6.606;2023-02-18T05:01:55;9.20;99.90
61807;DHT22;47726;52.766;6.606;2023-02-18T05:04:20;9.20;99.90
61807;DHT22;47726;52.766;6.606;2023-02-18T05:06:46;9.20;99.90
61807;DHT22;47726;52.766;6.606;2023-02-18T05:09:12;9.20;99.90
61807;DHT22;47726;52.766;6.606;2023-02-18T05:11:38;9.20;99.90
61807;DHT22;47726;52.766;6.606;2023-02-18T05:14:04;9.20;99.90
61807;DHT22;47726;52.766;6.606;2023-02-18T05:16:29;9.20;99.90
61807;DHT22;47726;52.766;6.606;2023-02-18T05:18:55;9.20;99.90
61807;DHT22;47726;52.766;6.606;2023-02-18T05:21:20;9.20;99.90
61807;DHT22;47726;52.766;6.606;2023-02-18T05:23:46;9.20;99.90
61807;DHT22;47726;52.766;6.606;2023-02-18T05:26:11;9.30;99.90
61807;DHT22;47726;52.766;6.606;2023-02-18T05:28:37;9.30;99.90
61807;DHT22;47726;52.766;6.606;2023-02-18T05:31:03;9.20;99.90
61807;DHT22;47726;52.766;6.606;2023-02-18T05:33:28;9.30;99.90
61807;DHT22;47726;52.766;6.606;2023-02-18T05:35:54;9.30;99.90
61807;DHT22;47726;52.766;6.606;2023-02-18T05:38:19;9.30;99.90
61807;DHT22;47726;52.766;6.606;2023-02-18T05:40:45;9.30;99.90
61807;DHT22;47726;52.766;6.606;2023-02-18T05:43:12;9.30;99.90
61807;DHT22;47726;52.766;6.606;2023-02-18T05:45:38;9.30;99.90
61807;DHT22;47726;52.766;6.606;2023-02-18T05:48:04;9.30;99.90
61807;DHT22;47726;52.766;6.606;2023-02-18T05:50:29;9.30;99.90
61807;DHT22;47726;52.766;6.606;2023-02-18T05:52:55;9.40;99.90
61807;DHT22;47726;52.766;6.606;2023-02-18T05:55:21;9.40;99.90
61807;DHT22;47726;52.766;6.606;2023-02-18T05:57:46;9.40;99.90
61807;DHT22;47726;52.766;6.606;2023-02-18T06:00:12;9.40;99.90
61807;DHT22;47726;52.766;6.606;2023-02-18T06:02:38;9.40;99.90
61807;DHT22;47726;52.766;6.606;2023-02-18T06:05:04;9.40;99.90
61807;DHT22;47726;52.766;6.606;2023-02-18T06:07:30;9.40;99.90
61807;DHT22;47726;52.766;6.606;2023-02-18T06:09:56;9.40;99.90
61807;DHT22;47726;52.766;6.606;2023-02-18T06:12:21;9.40;99.90
61807;DHT22;47726;52.766;6.606;2023-02-18T06:14:47;9.50;99.90
61807;DHT22;47726;52.766;6.606;2023-02-18T06:17:13;9.50;99.90
61807;DHT22;47726;52.766;6.606;2023-02-18T06:19:39;9.50;99.90
61807;DHT22;47726;52.766;6.606;2023-02-18T06:22:06;9.50;99.90
61807;DHT22;47726;52.766;6.606;2023-02-18T06:24:32;9.50;99.90
61807;DHT22;47726;52.766;6.606;2023-02-18T06:26:58;9.50;99.90
61807;DHT22;47726;52.766;6.606;2023-02-18T06:29:23;9.50;99.90
61807;DHT22;47726;52.766;6.606;2023-02-18T06:31:49;9.60;99.90
61807;DHT22;47726;52.766;6.606;2023-02-18T06:34:15;9.50;99.90
61807;DHT22;47726;52.766;6.606;2023-02-18T06:36:41;9.60;99.90
61807;DHT22;47726;52.766;6.606;2023-02-18T06:39:07;9.60;99.90
61807;DHT22;47726;52.766;6.606;2023-02-18T06:41:33;9.60;99.90
61807;DHT22;47726;52.766;6.606;2023-02-18T06:43:59;9.60;99.90
61807;DHT22;47726;52.766;6.606;2023-02-18T06:46:24;9.60;99.90
61807;DHT22;47726;52.766;6.606;2023-02-18T06:48:50;9.60;99.90
61807;DHT22;47726;52.766;6.606;2023-02-18T06:51:16;9.60;99.90
61807;DHT22;47726;52.766;6.606;2023-02-18T06:53:44;9.60;99.90
61807;DHT22;47726;52.766;6.606;2023-02-18T06:56:09;9.60;99.90
61807;DHT22;47726;52.766;6.606;2023-02-18T06:58:35;9.60;99.90
61807;DHT22;47726;52.766;6.606;2023-02-18T07:01:01;9.70;99.90
61807;DHT22;47726;52.766;6.606;2023-02-18T07:03:26;9.70;99.90
61807;DHT22;47726;52.766;6.606;2023-02-18T07:05:52;9.70;99.90
61807;DHT22;47726;52.766;6.606;2023-02-18T07:08:18;9.70;99.90
61807;DHT22;47726;52.766;6.606;2023-02-18T07:10:43;9.70;99.90
61807;DHT22;47726;52.766;6.606;2023-02-18T07:13:09;9.70;99.90
61807;DHT22;47726;52.766;6.606;2023-02-18T07:15:35;9.80;99.90
61807;DHT22;47726;52.766;6.606;2023-02-18T07:18:00;9.80;99.90
61807;DHT22;47726;52.766;6.606;2023-02-18T07:20:27;9.80;99.90
61807;DHT22;47726;52.766;6.606;2023-02-18T07:22:52;9.80;99.90
61807;DHT22;47726;52.766;6.606;2023-02-18T07:25:18;9.80;99.90
61807;DHT22;47726;52.766;6.606;2023-02-18T07:27:44;9.80;99.90
61807;DHT22;47726;52.766;6.606;2023-02-18T07:30:10;9.80;99.90
61807;DHT22;47726;52.766;6.606;2023-02-18T07:32:36;9.90;99.90
61807;DHT22;47726;52.766;6.606;2023-02-18T07:35:03;9.90;99.90
61807;DHT22;47726;52.766;6.606;2023-02-18T07:37:29;9.80;99.90
61807;DHT22;47726;52.766;6.606;2023-02-18T07:39:54;9.90;99.90
61807;DHT22;47726;52.766;6.606;2023-02-18T07:42:20;9.90;99.90
61807;DHT22;47726;52.766;6.606;2023-02-18T07:44:46;9.80;99.90
61807;DHT22;47726;52.766;6.606;2023-02-18T07:47:13;9.90;99.90
61807;DHT22;47726;52.766;6.606;2023-02-18T07:49:39;9.90;99.90
61807;DHT22;47726;52.766;6.606;2023-02-18T07:52:05;9.90;99.90
61807;DHT22;47726;52.766;6.606;2023-02-18T07:54:30;9.90;99.90
61807;DHT22;47726;52.766;6.606;2023-02-18T07:56:56;9.90;99.90
61807;DHT22;47726;52.766;6.606;2023-02-18T07:59:22;9.90;99.90
61807;DHT22;47726;52.766;6.606;2023-02-18T08:01:47;9.90;99.90
61807;DHT22;47726;52.766;6.606;2023-02-18T08:04:13;9.90;99.90
61807;DHT22;47726;52.766;6.606;2023-02-18T08:06:41;9.90;99.90
61807;DHT22;47726;52.766;6.606;2023-02-18T08:09:08;9.90;99.90
61807;DHT22;47726;52.766;6.606;2023-02-18T08:11:34;9.90;99.90
61807;DHT22;47726;52.766;6.606;2023-02-18T08:14:00;9.90;99.90
61807;DHT22;47726;52.766;6.606;2023-02-18T08:16:26;9.90;99.90
61807;DHT22;47726;52.766;6.606;2023-02-18T08:18:52;9.90;99.90
61807;DHT22;47726;52.766;6.606;2023-02-18T08:21:20;9.90;99.90
61807;DHT22;47726;52.766;6.606;2023-02-18T08:23:46;9.90;99.90
61807;DHT22;47726;52.766;6.606;2023-02-18T08:26:12;9.90;99.90
61807;DHT22;47726;52.766;6.606;2023-02-18T08:28:38;9.90;99.90
61807;DHT22;47726;52.766;6.606;2023-02-18T08:31:04;9.90;99.90
61807;DHT22;47726;52.766;6.606;2023-02-18T08:33:30;10.00;99.90
61807;DHT22;47726;52.766;6.606;2023-02-18T08:35:56;10.00;99.90
61807;DHT22;47726;52.766;6.606;2023-02-18T08:38:23;10.00;99.90
61807;DHT22;47726;52.766;6.606;2023-02-18T08:40:49;10.00;99.90
61807;DHT22;47726;52.766;6.606;2023-02-18T08:43:15;10.00;99.90
61807;DHT22;47726;52.766;6.606;2023-02-18T08:45:42;10.00;99.90
61807;DHT22;47726;52.766;6.606;2023-02-18T08:48:10;10.00;99.90
61807;DHT22;47726;52.766;6.606;2023-02-18T08:50:36;10.00;99.90
61807;DHT22;47726;52.766;6.606;2023-02-18T08:53:02;10.00;99.90
61807;DHT22;47726;52.766;6.606;2023-02-18T08:55:29;10.00;99.90
61807;DHT22;47726;52.766;6.606;2023-02-18T08:57:55;10.00;99.90
61807;DHT22;47726;52.766;6.606;2023-02-18T09:00:20;10.00;99.90
61807;DHT22;47726;52.766;6.606;2023-02-18T09:02:46;10.00;99.90
61807;DHT22;47726;52.766;6.606;2023-02-18T09:05:12;10.00;99.90
61807;DHT22;47726;52.766;6.606;2023-02-18T09:07:38;10.00;99.90
61807;DHT22;47726;52.766;6.606;2023-02-18T09:10:04;10.10;99.90
61807;DHT22;47726;52.766;6.606;2023-02-18T09:12:29;10.00;99.90
61807;DHT22;47726;52.766;6.606;2023-02-18T09:14:55;10.10;99.90
61807;DHT22;47726;52.766;6.606;2023-02-18T09:17:21;10.00;99.90
61807;DHT22;47726;52.766;6.606;2023-02-18T09:19:47;10.00;99.90
61807;DHT22;47726;52.766;6.606;2023-02-18T09:22:13;10.00;99.90
61807;DHT22;47726;52.766;6.606;2023-02-18T09:24:40;10.00;99.90
61807;DHT22;47726;52.766;6.606;2023-02-18T09:27:06;10.00;99.90
61807;DHT22;47726;52.766;6.606;2023-02-18T09:29:36;10.00;99.90
61807;DHT22;47726;52.766;6.606;2023-02-18T09:32:02;10.00;99.90
61807;DHT22;47726;52.766;6.606;2023-02-18T09:34:28;10.00;99.90
61807;DHT22;47726;52.766;6.606;2023-02-18T09:36:53;9.90;99.90
61807;DHT22;47726;52.766;6.606;2023-02-18T09:39:19;9.90;99.90
61807;DHT22;47726;52.766;6.606;2023-02-18T09:41:56;9.90;99.90
61807;DHT22;47726;52.766;6.606;2023-02-18T09:44:48;9.90;99.90
61807;DHT22;47726;52.766;6.606;2023-02-18T09:47:29;9.90;99.90
61807;DHT22;47726;52.766;6.606;2023-02-18T09:50:25;9.90;99.90
61807;DHT22;47726;52.766;6.606;2023-02-18T09:52:52;9.90;99.90
61807;DHT22;47726;52.766;6.606;2023-02-18T09:55:30;9.90;99.90
61807;DHT22;47726;52.766;6.606;2023-02-18T09:58:02;9.90;99.90
61807;DHT22;47726;52.766;6.606;2023-02-18T10:00:51;9.90;99.90
61807;DHT22;47726;52.766;6.606;2023-02-18T10:03:20;9.90;99.90
61807;DHT22;47726;52.766;6.606;2023-02-18T10:06:29;9.90;99.90
61807;DHT22;47726;52.766;6.606;2023-02-18T10:08:57;9.90;99.90
61807;DHT22;47726;52.766;6.606;2023-02-18T10:11:45;9.90;99.90
61807;DHT22;47726;52.766;6.606;2023-02-18T10:14:13;9.90;99.90
61807;DHT22;47726;52.766;6.606;2023-02-18T10:16:40;9.90;99.90
61807;DHT22;47726;52.766;6.606;2023-02-18T10:19:30;9.90;99.90
61807;DHT22;47726;52.766;6.606;2023-02-18T10:22:00;9.90;99.90
61807;DHT22;47726;52.766;6.606;2023-02-18T10:26:52;9.90;99.90
61807;DHT22;47726;52.766;6.606;2023-02-18T10:29:19;9.90;99.90
61807;DHT22;47726;52.766;6.606;2023-02-18T10:37:31;10.00;99.90
61807;DHT22;47726;52.766;6.606;2023-02-18T10:43:02;10.10;99.90
61807;DHT22;47726;52.766;6.606;2023-02-18T10:45:53;10.20;99.90
61807;DHT22;47726;52.766;6.606;2023-02-18T10:50:47;10.20;99.90
61807;DHT22;47726;52.766;6.606;2023-02-18T10:53:30;10.20;99.90
61807;DHT22;47726;52.766;6.606;2023-02-18T10:55:57;10.20;99.90
61807;DHT22;47726;52.766;6.606;2023-02-18T10:58:36;10.20;99.90
61807;DHT22;47726;52.766;6.606;2023-02-18T11:01:13;10.20;99.90
61807;DHT22;47726;52.766;6.606;2023-02-18T11:03:46;10.20;99.90
61807;DHT22;47726;52.766;6.606;2023-02-18T11:06:33;10.20;99.90
61807;DHT22;47726;52.766;6.606;2023-02-18T11:09:02;10.20;99.90
61807;DHT22;47726;52.766;6.606;2023-02-18T11:14:00;10.20;99.90
61807;DHT22;47726;52.766;6.606;2023-02-18T11:16:44;10.20;99.90
61807;DHT22;47726;52.766;6.606;2023-02-18T11:19:29;10.30;99.90
61807;DHT22;47726;52.766;6.606;2023-02-18T11:22:07;10.30;99.90
61807;DHT22;47726;52.766;6.606;2023-02-18T11:24:37;10.30;99.90
61807;DHT22;47726;52.766;6.606;2023-02-18T11:27:10;10.30;99.90
61807;DHT22;47726;52.766;6.606;2023-02-18T11:29:41;10.30;99.90
61807;DHT22;47726;52.766;6.606;2023-02-18T11:32:10;10.30;99.90
61807;DHT22;47726;52.766;6.606;2023-02-18T11:34:36;10.30;99.90
61807;DHT22;47726;52.766;6.606;2023-02-18T11:37:10;10.30;99.90
61807;DHT22;47726;52.766;6.606;2023-02-18T11:39:42;10.30;99.90
61807;DHT22;47726;52.766;6.606;2023-02-18T11:42:10;10.30;99.90
61807;DHT22;47726;52.766;6.606;2023-02-18T11:44:39;10.30;99.90
61807;DHT22;47726;52.766;6.606;2023-02-18T11:47:19;10.30;99.90
61807;DHT22;47726;52.766;6.606;2023-02-18T11:50:00;10.30;99.90
61807;DHT22;47726;52.766;6.606;2023-02-18T11:52:38;10.30;99.90
61807;DHT22;47726;52.766;6.606;2023-02-18T11:55:28;10.30;99.90
61807;DHT22;47726;52.766;6.606;2023-02-18T11:58:00;10.30;99.90
61807;DHT22;47726;52.766;6.606;2023-02-18T12:00:38;10.30;99.90
61807;DHT22;47726;52.766;6.606;2023-02-18T12:05:39;10.40;99.90
61807;DHT22;47726;52.766;6.606;2023-02-18T12:08:13;10.40;99.90
61807;DHT22;47726;52.766;6.606;2023-02-18T12:10:52;10.40;99.90
61807;DHT22;47726;52.766;6.606;2023-02-18T12:16:36;10.50;99.90
61807;DHT22;47726;52.766;6.606;2023-02-18T12:19:33;10.50;99.90
61807;DHT22;47726;52.766;6.606;2023-02-18T12:22:23;10.50;99.90
61807;DHT22;47726;52.766;6.606;2023-02-18T12:36:16;10.70;99.90
61807;DHT22;47726;52.766;6.606;2023-02-18T12:44:37;10.70;99.90
61807;DHT22;47726;52.766;6.606;2023-02-18T12:47:17;10.70;99.90
61807;DHT22;47726;52.766;6.606;2023-02-18T13:00:59;10.90;99.90
61807;DHT22;47726;52.766;6.606;2023-02-18T13:13:03;10.90;99.90
61807;DHT22;47726;52.766;6.606;2023-02-18T13:15:44;10.90;99.90
61807;DHT22;47726;52.766;6.606;2023-02-18T13:18:23;10.90;99.90
61807;DHT22;47726;52.766;6.606;2023-02-18T13:20:56;10.90;99.90
61807;DHT22;47726;52.766;6.606;2023-02-18T13:23:30;10.90;99.90
61807;DHT22;47726;52.766;6.606;2023-02-18T13:25:59;11.00;99.90
61807;DHT22;47726;52.766;6.606;2023-02-18T13:28:48;11.00;99.90
61807;DHT22;47726;52.766;6.606;2023-02-18T13:34:23;11.00;99.90
61807;DHT22;47726;52.766;6.606;2023-02-18T13:36:55;11.00;99.90
61807;DHT22;47726;52.766;6.606;2023-02-18T13:39:25;11.00;99.90
61807;DHT22;47726;52.766;6.606;2023-02-18T13:41:51;11.00;99.90
61807;DHT22;47726;52.766;6.606;2023-02-18T13:47:41;11.00;99.90
61807;DHT22;47726;52.766;6.606;2023-02-18T13:55:59;11.00;99.90
61807;DHT22;47726;52.766;6.606;2023-02-18T13:58:36;11.00;99.90
61807;DHT22;47726;52.766;6.606;2023-02-18T14:06:20;10.90;99.90
61807;DHT22;47726;52.766;6.606;2023-02-18T14:08:47;10.90;99.90
61807;DHT22;47726;52.766;6.606;2023-02-18T14:16:23;10.90;99.90
61807;DHT22;47726;52.766;6.606;2023-02-18T14:18:58;10.90;99.90
61807;DHT22;47726;52.766;6.606;2023-02-18T14:21:41;10.90;99.90
61807;DHT22;47726;52.766;6.606;2023-02-18T14:24:10;10.90;99.90
61807;DHT22;47726;52.766;6.606;2023-02-18T14:26:39;10.90;99.90
61807;DHT22;47726;52.766;6.606;2023-02-18T14:29:19;10.90;99.90
61807;DHT22;47726;52.766;6.606;2023-02-18T14:31:50;10.90;99.90
61807;DHT22;47726;52.766;6.606;2023-02-18T14:50:15;10.80;99.90
61807;DHT22;47726;52.766;6.606;2023-02-18T14:52:46;10.80;99.90
61807;DHT22;47726;52.766;6.606;2023-02-18T14:55:25;10.80;99.90
61807;DHT22;47726;52.766;6.606;2023-02-18T14:57:55;10.80;99.90
61807;DHT22;47726;52.766;6.606;2023-02-18T15:00:25;10.80;99.90
61807;DHT22;47726;52.766;6.606;2023-02-18T15:02:54;10.80;99.90
61807;DHT22;47726;52.766;6.606;2023-02-18T15:05:22;10.80;99.90
61807;DHT22;47726;52.766;6.606;2023-02-18T15:10:35;10.70;99.90
61807;DHT22;47726;52.766;6.606;2023-02-18T15:13:02;10.70;99.90
61807;DHT22;47726;52.766;6.606;2023-02-18T15:15:32;10.70;99.90
61807;DHT22;47726;52.766;6.606;2023-02-18T15:17:59;10.70;99.90
61807;DHT22;47726;52.766;6.606;2023-02-18T15:20:26;10.70;99.90
61807;DHT22;47726;52.766;6.606;2023-02-18T15:22:52;10.70;99.90
61807;DHT22;47726;52.766;6.606;2023-02-18T15:25:19;10.70;99.90
61807;DHT22;47726;52.766;6.606;2023-02-18T15:27:45;10.70;99.90
61807;DHT22;47726;52.766;6.606;2023-02-18T15:30:30;10.70;99.90
61807;DHT22;47726;52.766;6.606;2023-02-18T15:32:58;10.70;99.90
61807;DHT22;47726;52.766;6.606;2023-02-18T15:35:29;10.60;99.90
61807;DHT22;47726;52.766;6.606;2023-02-18T15:37:58;10.60;99.90
61807;DHT22;47726;52.766;6.606;2023-02-18T15:40:33;10.60;99.90
61807;DHT22;47726;52.766;6.606;2023-02-18T15:43:00;10.60;99.90
61807;DHT22;47726;52.766;6.606;2023-02-18T15:45:32;10.60;99.90
61807;DHT22;47726;52.766;6.606;2023-02-18T15:47:59;10.60;99.90
61807;DHT22;47726;52.766;6.606;2023-02-18T15:50:28;10.60;99.90
61807;DHT22;47726;52.766;6.606;2023-02-18T15:53:13;10.60;99.90
61807;DHT22;47726;52.766;6.606;2023-02-18T15:55:41;10.60;99.90
61807;DHT22;47726;52.766;6.606;2023-02-18T16:00:49;10.60;99.90
61807;DHT22;47726;52.766;6.606;2023-02-18T16:03:19;10.50;99.90
61807;DHT22;47726;52.766;6.606;2023-02-18T16:05:45;10.60;99.90
61807;DHT22;47726;52.766;6.606;2023-02-18T16:08:23;10.50;99.90
61807;DHT22;47726;52.766;6.606;2023-02-18T16:11:02;10.50;99.90
61807;DHT22;47726;52.766;6.606;2023-02-18T16:13:28;10.50;99.90
61807;DHT22;47726;52.766;6.606;2023-02-18T16:15:56;10.50;99.90
61807;DHT22;47726;52.766;6.606;2023-02-18T16:21:50;10.50;99.90
61807;DHT22;47726;52.766;6.606;2023-02-18T16:23:51;10.50;99.90
61807;DHT22;47726;52.766;6.606;2023-02-18T16:29:13;10.40;99.90
61807;DHT22;47726;52.766;6.606;2023-02-18T16:31:39;10.40;99.90
61807;DHT22;47726;52.766;6.606;2023-02-18T16:34:05;10.40;99.90
61807;DHT22;47726;52.766;6.606;2023-02-18T16:36:31;10.30;99.90
61807;DHT22;47726;52.766;6.606;2023-02-18T16:38:57;10.40;99.90
61807;DHT22;47726;52.766;6.606;2023-02-18T16:41:26;10.30;99.90
61807;DHT22;47726;52.766;6.606;2023-02-18T16:43:52;10.30;99.90
61807;DHT22;47726;52.766;6.606;2023-02-18T16:46:21;10.30;99.90
61807;DHT22;47726;52.766;6.606;2023-02-18T16:48:52;10.30;99.90
61807;DHT22;47726;52.766;6.606;2023-02-18T16:51:29;10.30;99.90
61807;DHT22;47726;52.766;6.606;2023-02-18T16:53:56;10.30;99.90
61807;DHT22;47726;52.766;6.606;2023-02-18T16:56:25;10.30;99.90
61807;DHT22;47726;52.766;6.606;2023-02-18T16:58:50;10.20;99.90
61807;DHT22;47726;52.766;6.606;2023-02-18T17:01:32;10.20;99.90
61807;DHT22;47726;52.766;6.606;2023-02-18T17:04:00;10.20;99.90
61807;DHT22;47726;52.766;6.606;2023-02-18T17:06:27;10.20;99.90
61807;DHT22;47726;52.766;6.606;2023-02-18T17:08:54;10.20;99.90
61807;DHT22;47726;52.766;6.606;2023-02-18T17:11:25;10.20;99.90
61807;DHT22;47726;52.766;6.606;2023-02-18T17:13:53;10.20;99.90
61807;DHT22;47726;52.766;6.606;2023-02-18T17:16:20;10.20;99.90
61807;DHT22;47726;52.766;6.606;2023-02-18T17:18:46;10.20;99.90
61807;DHT22;47726;52.766;6.606;2023-02-18T17:21:13;10.20;99.90
61807;DHT22;47726;52.766;6.606;2023-02-18T17:23:40;10.10;99.90
61807;DHT22;47726;52.766;6.606;2023-02-18T17:26:19;10.20;99.90
61807;DHT22;47726;52.766;6.606;2023-02-18T17:28:45;10.10;99.90
61807;DHT22;47726;52.766;6.606;2023-02-18T17:31:20;10.10;99.90
61807;DHT22;47726;52.766;6.606;2023-02-18T17:33:49;10.10;99.90
61807;DHT22;47726;52.766;6.606;2023-02-18T17:36:14;10.10;99.90
61807;DHT22;47726;52.766;6.606;2023-02-18T17:38:40;10.10;99.90
61807;DHT22;47726;52.766;6.606;2023-02-18T17:41:06;10.10;99.90
61807;DHT22;47726;52.766;6.606;2023-02-18T17:43:32;10.10;99.90
61807;DHT22;47726;52.766;6.606;2023-02-18T17:45:59;10.00;99.90
61807;DHT22;47726;52.766;6.606;2023-02-18T17:48:25;10.00;99.90
61807;DHT22;47726;52.766;6.606;2023-02-18T17:50:51;10.00;99.90
61807;DHT22;47726;52.766;6.606;2023-02-18T17:53:17;10.00;99.90
61807;DHT22;47726;52.766;6.606;2023-02-18T17:55:44;10.00;99.90
61807;DHT22;47726;52.766;6.606;2023-02-18T17:58:11;10.00;99.90
61807;DHT22;47726;52.766;6.606;2023-02-18T18:00:49;10.00;99.90
61807;DHT22;47726;52.766;6.606;2023-02-18T18:03:15;10.00;99.90
61807;DHT22;47726;52.766;6.606;2023-02-18T18:05:43;10.00;99.90
61807;DHT22;47726;52.766;6.606;2023-02-18T18:08:09;10.00;99.90